createdAt,value
2018-09-28T00:03:42.024Z,2.33
2018-09-28T00:13:45.768Z,2.70
2018-09-28T00:23:50.251Z,2.60
2018-09-28T00:34:02.290Z,2.60
2018-09-28T00:44:06.044Z,2.40
2018-09-28T00:54:10.376Z,2.52
2018-09-28T01:04:14.592Z,2.10
2018-09-28T01:14:18.174Z,2.50
2018-09-28T01:24:21.275Z,2.60
2018-09-28T01:34:24.329Z,2.73
2018-09-28T01:44:28.842Z,2.20
2018-09-28T01:54:32.030Z,2.47
2018-09-28T02:04:35.462Z,2.60
2018-09-28T02:14:38.648Z,2.50
2018-09-28T02:24:42.331Z,2.33
2018-09-28T02:34:45.383Z,2.40
2018-09-28T02:44:48.744Z,2.50
2018-09-28T02:54:52.137Z,2.30
2018-09-28T03:04:55.236Z,2.40
2018-09-28T03:14:58.484Z,2.13
2018-09-28T03:25:01.804Z,2.37
2018-09-28T03:35:05.159Z,2.40
2018-09-28T03:45:08.765Z,2.70
2018-09-28T03:55:13.159Z,2.57
2018-09-28T04:05:17.039Z,2.60
2018-09-28T04:15:20.118Z,2.60
2018-09-28T04:25:23.287Z,2.60
2018-09-28T04:35:26.339Z,2.60
2018-09-28T04:45:29.374Z,2.52
2018-09-28T04:55:32.412Z,2.40
2018-09-28T05:05:35.570Z,2.40
2018-09-28T05:15:38.515Z,2.83
2018-09-28T05:25:41.692Z,2.97
2018-09-28T05:35:44.746Z,3.02
2018-09-28T05:45:49.377Z,3.63
2018-09-28T05:55:53.152Z,3.70
2018-09-28T06:06:00.103Z,4.00
2018-09-28T06:16:03.220Z,3.90
2018-09-28T06:26:06.526Z,4.00
2018-09-28T06:36:09.939Z,4.17
2018-09-28T06:46:12.975Z,3.90
2018-09-28T06:56:16.192Z,3.77
2018-09-28T07:06:19.882Z,3.63
2018-09-28T07:16:22.963Z,3.90
2018-09-28T07:26:26.159Z,8.00
2018-09-28T07:36:29.757Z,6.00
2018-09-28T07:46:33.528Z,6.77
2018-09-28T07:56:37.261Z,4.77
2018-09-28T08:06:40.956Z,6.97
2018-09-28T08:16:44.085Z,8.03
2018-09-28T08:26:47.162Z,8.33
2018-09-28T08:36:51.085Z,7.33
2018-09-28T08:46:54.310Z,5.37
2018-09-28T08:56:57.565Z,4.23
2018-09-28T09:07:00.808Z,6.13
2018-09-28T09:17:05.442Z,6.60
2018-09-28T09:27:08.498Z,9.97
2018-09-28T09:37:11.614Z,4.70
2018-09-28T09:47:14.744Z,5.23
2018-09-28T09:57:17.971Z,4.13
2018-09-28T10:07:20.986Z,10.87
2018-09-28T10:17:24.097Z,10.17
2018-09-28T10:27:27.151Z,10.67
2018-09-28T10:37:30.254Z,9.50
2018-09-28T10:47:33.480Z,9.60
2018-09-28T10:57:36.482Z,13.50
2018-09-28T11:07:39.640Z,16.73
2018-09-28T11:17:42.810Z,14.10
2018-09-28T11:27:45.963Z,10.23
2018-09-28T11:37:49.158Z,8.73
2018-09-28T11:47:52.247Z,10.00
2018-09-28T11:57:55.286Z,6.87
2018-09-28T12:07:58.576Z,5.60
2018-09-28T12:18:01.643Z,3.53
2018-09-28T12:28:04.782Z,3.93
2018-09-28T12:38:07.923Z,3.77
2018-09-28T12:48:11.018Z,4.00
2018-09-28T12:58:14.073Z,7.03
2018-09-28T13:08:17.179Z,2.97
2018-09-28T13:18:20.385Z,3.07
2018-09-28T13:28:23.415Z,5.40
2018-09-28T13:38:26.696Z,6.03
2018-09-28T13:48:29.757Z,4.60
2018-09-28T13:58:32.802Z,4.37
2018-09-28T14:08:36.021Z,3.77
2018-09-28T14:18:39.177Z,4.17
2018-09-28T14:28:42.260Z,2.33
2018-09-28T14:38:45.441Z,3.07
2018-09-28T14:48:48.661Z,6.93
2018-09-28T14:58:51.694Z,5.73
2018-09-28T15:08:54.851Z,5.40
2018-09-28T15:18:57.909Z,4.27
2018-09-28T15:29:01.047Z,2.50
2018-09-28T15:39:06.015Z,5.67
2018-09-28T15:49:09.195Z,3.43
2018-09-28T15:59:12.416Z,16.27
2018-09-28T16:09:15.531Z,13.93
2018-09-28T16:19:18.612Z,9.17
2018-09-28T16:29:21.823Z,10.23
2018-09-28T16:39:24.873Z,15.63
2018-09-28T16:49:28.011Z,14.93
2018-09-28T16:59:31.175Z,12.80
2018-09-28T17:09:34.256Z,6.03
2018-09-28T17:19:37.414Z,10.93
2018-09-28T17:29:40.553Z,7.10
2018-09-28T17:39:43.748Z,4.07
2018-09-28T17:49:46.817Z,5.60
2018-09-28T17:59:49.955Z,4.33
2018-09-28T18:09:52.940Z,4.63
2018-09-28T18:19:56.082Z,3.57
2018-09-28T18:29:59.337Z,3.03
2018-09-28T18:40:02.499Z,2.77
2018-09-28T18:50:05.631Z,3.37
2018-09-28T19:00:08.762Z,2.60
2018-09-28T19:10:12.080Z,2.03
2018-09-28T19:20:15.279Z,3.37
2018-09-28T19:30:18.367Z,2.23
2018-09-28T19:40:21.397Z,1.63
2018-09-28T19:50:24.665Z,3.20
2018-09-28T20:00:27.698Z,3.07
2018-09-28T20:10:30.800Z,2.63
2018-09-28T20:20:34.028Z,3.23
2018-09-28T20:30:37.144Z,4.77
2018-09-28T20:40:40.238Z,6.33
2018-09-28T20:50:43.461Z,4.05
2018-09-28T21:00:46.459Z,3.23
2018-09-28T21:10:49.519Z,3.27
2018-09-28T21:20:53.406Z,2.43
2018-09-28T21:30:56.613Z,2.30
2018-09-28T21:40:59.676Z,3.57
2018-09-28T21:51:02.882Z,3.00
2018-09-28T22:01:05.998Z,3.70
2018-09-28T22:11:09.335Z,3.07
2018-09-28T22:21:12.459Z,3.23
2018-09-28T22:31:15.760Z,2.12
2018-09-28T22:41:18.691Z,3.00
2018-09-28T22:51:21.712Z,2.50
2018-09-28T23:01:24.766Z,3.37
2018-09-28T23:11:27.757Z,3.00
2018-09-28T23:21:30.862Z,2.77
2018-09-28T23:31:33.865Z,2.10
2018-09-28T23:41:37.067Z,2.67
2018-09-28T23:51:40.105Z,2.63
